TimeCAT,TemperatureF,Dew PointF,Humidity,Sea Level PressureIn,VisibilityMPH,Wind Direction,Wind SpeedMPH,Gust SpeedMPH,PrecipitationIn,Events,Conditions,WindDirDegrees,DateUTC
1:00 AM,82.4,55.4,39,29.86,-9999.0,East,11.5,-,N/A,,Clear,80,2012-11-09 23:00:00
2:00 AM,83,57,30,,6,SE,16.1,,,,,140,2012-11-10 00:00:00
2:00 AM,82.4,57.2,42,29.89,-9999.0,SE,16.1,-,N/A,,Clear,140,2012-11-10 00:00:00
3:00 AM,80.6,55.4,42,29.89,-9999.0,East,13.8,-,N/A,,Clear,90,2012-11-10 01:00:00
5:00 AM,75.2,60.8,61,29.95,-9999.0,East,18.4,-,N/A,,Clear,90,2012-11-10 03:00:00
6:00 AM,73.4,62.6,69,30.01,-9999.0,East,17.3,-,N/A,,Clear,90,2012-11-10 04:00:00
7:00 AM,73.4,62.6,69,30.01,-9999.0,East,17.3,-,N/A,,Clear,80,2012-11-10 05:00:00
8:00 AM,75.2,62.6,65,30.06,-9999.0,ENE,5.8,-,N/A,,Clear,61,2012-11-10 06:00:00
9:00 AM,82.4,62.6,51,30.04,-9999.0,ENE,17.3,-,N/A,,Clear,60,2012-11-10 07:00:00
10:00 AM,86.0,60.8,43,30.04,-9999.0,NE,18.4,-,N/A,,Clear,50,2012-11-10 08:00:00
11:00 AM,87.8,62.6,43,30.04,-9999.0,NE,20.7,-,N/A,,Clear,40,2012-11-10 09:00:00
12:00 PM,87.8,62.6,43,30.04,-9999.0,NE,18.4,-,N/A,,Clear,50,2012-11-10 10:00:00
1:00 PM,89.6,62.6,40,30.01,-9999.0,NNE,15.0,-,N/A,,Clear,30,2012-11-10 11:00:00
2:00 PM,90,60,27,,6,NE,16.1,,,,Partly Cloudy,40,2012-11-10 12:00:00
2:00 PM,91.4,60.8,36,29.98,-9999.0,NE,16.1,-,N/A,,Clear,40,2012-11-10 12:00:00
3:00 PM,89.6,60.8,38,29.98,-9999.0,NE,16.1,-,N/A,,Clear,40,2012-11-10 13:00:00
4:00 PM,89.6,60.8,38,29.98,-9999.0,NE,13.8,-,N/A,,Clear,50,2012-11-10 14:00:00
5:00 PM,89.6,60.8,38,29.95,-9999.0,NE,13.8,-,N/A,,Clear,50,2012-11-10 15:00:00
6:00 PM,86.0,60.8,43,29.98,-9999.0,NE,19.6,-,N/A,,Clear,50,2012-11-10 16:00:00
7:00 PM,82.4,60.8,48,29.98,-9999.0,NNE,11.5,-,N/A,,Clear,30,2012-11-10 17:00:00
8:00 PM,80.6,59.0,48,30.01,-9999.0,North,3.5,-,N/A,,Clear,10,2012-11-10 18:00:00
9:00 PM,78.8,59.0,51,30.01,-9999.0,Variable,1.2,-,N/A,,Clear,0,2012-11-10 19:00:00
10:00 PM,78.8,62.6,57,30.04,-9999.0,North,3.5,-,N/A,,Clear,360,2012-11-10 20:00:00
11:00 PM,77.0,62.6,61,30.06,-9999.0,Variable,1.2,-,N/A,,Clear,0,2012-11-10 21:00:00